createdAt,value
2022-08-05T00:01:27.644Z,0.00
2022-08-05T00:03:54.813Z,0.00
2022-08-05T00:06:32.236Z,0.00
2022-08-05T00:09:00.427Z,0.00
2022-08-05T00:11:34.826Z,0.00
2022-08-05T00:14:13.071Z,0.00
2022-08-05T00:16:52.548Z,0.00
2022-08-05T00:19:23.407Z,0.00
2022-08-05T00:21:51.608Z,0.00
2022-08-05T00:24:24.549Z,0.00
2022-08-05T00:26:52.954Z,0.00
2022-08-05T00:29:22.755Z,0.00
2022-08-05T00:32:10.265Z,0.00
2022-08-05T00:35:06.116Z,0.00
2022-08-05T00:37:28.835Z,0.00
2022-08-05T00:40:17.814Z,0.00
2022-08-05T00:42:53.097Z,0.00
2022-08-05T00:45:28.255Z,0.00
2022-08-05T00:48:10.423Z,0.00
2022-08-05T00:50:39.530Z,0.00
2022-08-05T00:53:09.910Z,0.00
2022-08-05T00:55:55.057Z,0.00
2022-08-05T00:58:21.492Z,0.00
2022-08-05T01:00:54.069Z,0.00
2022-08-05T01:03:22.899Z,0.00
2022-08-05T01:05:51.063Z,0.00
2022-08-05T01:08:41.774Z,0.00
2022-08-05T01:11:06.696Z,0.00
2022-08-05T01:13:58.018Z,0.00
2022-08-05T01:16:30.459Z,0.00
2022-08-05T01:19:01.113Z,0.00
2022-08-05T01:21:59.859Z,0.00
2022-08-05T01:24:39.976Z,0.00
2022-08-05T01:27:32.908Z,0.00
2022-08-05T01:30:01.584Z,0.00
2022-08-05T01:32:28.028Z,0.00
2022-08-05T01:34:58.517Z,0.00
2022-08-05T01:37:29.549Z,0.00
2022-08-05T01:39:59.434Z,0.00
2022-08-05T01:42:26.519Z,0.00
2022-08-05T01:44:54.248Z,0.00
2022-08-05T01:47:21.565Z,0.00
2022-08-05T01:50:01.535Z,0.00
2022-08-05T01:52:29.150Z,0.00
2022-08-05T01:54:58.189Z,0.00
2022-08-05T01:58:18.879Z,0.00
2022-08-05T02:00:15.183Z,0.00
2022-08-05T02:02:54.890Z,0.00
2022-08-05T02:05:23.705Z,0.00
2022-08-05T02:07:57.871Z,0.00
2022-08-05T02:10:28.693Z,0.00
2022-08-05T02:12:56.910Z,0.00
2022-08-05T02:15:33.380Z,0.00
2022-08-05T02:18:33.209Z,0.00
2022-08-05T02:21:03.625Z,0.00
2022-08-05T02:23:33.499Z,0.00
2022-08-05T02:26:00.623Z,0.00
2022-08-05T02:28:32.131Z,0.00
2022-08-05T02:31:14.278Z,0.00
2022-08-05T02:33:44.913Z,0.00
2022-08-05T02:36:16.060Z,0.00
2022-08-05T02:38:53.623Z,0.00
2022-08-05T02:41:20.999Z,0.00
2022-08-05T02:44:05.932Z,0.00
2022-08-05T02:46:34.099Z,0.00
2022-08-05T02:49:00.962Z,0.00
2022-08-05T02:51:28.520Z,0.00
2022-08-05T02:54:34.821Z,0.00
2022-08-05T02:57:00.430Z,0.00
2022-08-05T02:59:27.795Z,0.00
2022-08-05T03:01:58.090Z,0.00
2022-08-05T03:04:25.270Z,0.00
2022-08-05T03:06:54.425Z,0.00
2022-08-05T03:09:36.445Z,0.00
2022-08-05T03:12:24.544Z,0.00
2022-08-05T03:14:51.391Z,0.00
2022-08-05T03:17:17.835Z,0.00
2022-08-05T03:19:46.710Z,0.00
2022-08-05T03:22:18.925Z,0.00
2022-08-05T03:24:58.503Z,0.00
2022-08-05T03:27:59.954Z,0.00
2022-08-05T03:30:30.183Z,0.00
2022-08-05T03:33:01.132Z,0.00
2022-08-05T03:35:28.538Z,0.00
2022-08-05T03:38:02.547Z,0.00
2022-08-05T03:40:31.870Z,0.00
2022-08-05T03:42:59.050Z,0.00
2022-08-05T03:45:28.025Z,0.00
2022-08-05T03:47:56.873Z,0.00
2022-08-05T03:50:23.660Z,0.00
2022-08-05T03:55:51.580Z,0.00
2022-08-05T03:56:10.322Z,0.00
2022-08-05T03:58:37.816Z,0.00
2022-08-05T04:01:07.976Z,0.00
2022-08-05T04:03:38.267Z,0.00
2022-08-05T04:06:05.764Z,0.00
2022-08-05T04:08:36.705Z,0.00
2022-08-05T04:11:04.396Z,0.00
2022-08-05T04:13:50.938Z,0.00
2022-08-05T04:16:25.040Z,0.00
2022-08-05T04:18:58.636Z,0.00
2022-08-05T04:22:09.430Z,0.00
2022-08-05T04:24:18.732Z,0.00
2022-08-05T04:26:46.293Z,0.00
2022-08-05T04:29:13.101Z,0.00
2022-08-05T04:31:40.803Z,10.90
2022-08-05T04:34:31.357Z,100.00
2022-08-05T04:36:54.159Z,100.00
2022-08-05T04:39:20.971Z,100.00
2022-08-05T04:41:48.515Z,100.00
2022-08-05T04:44:21.383Z,100.00
2022-08-05T04:46:56.471Z,100.00
2022-08-05T04:49:24.605Z,100.00
2022-08-05T04:52:05.157Z,100.00
2022-08-05T04:54:34.155Z,100.00
2022-08-05T04:57:00.631Z,100.00
2022-08-05T04:59:38.496Z,100.00
2022-08-05T05:02:37.402Z,100.00
2022-08-05T05:04:52.835Z,100.00
2022-08-05T05:07:29.452Z,100.00
2022-08-05T05:09:59.012Z,100.00
2022-08-05T05:12:29.142Z,100.00
2022-08-05T05:14:55.594Z,100.00
2022-08-05T05:17:24.627Z,100.00
2022-08-05T05:19:55.195Z,100.00
2022-08-05T05:22:26.585Z,100.00
2022-08-05T05:24:59.786Z,100.00
2022-08-05T05:27:44.499Z,100.00
2022-08-05T05:30:15.361Z,100.00
2022-08-05T05:32:55.525Z,100.00
2022-08-05T05:35:22.923Z,100.00
2022-08-05T05:37:59.726Z,100.00
2022-08-05T05:40:35.508Z,100.00
2022-08-05T05:43:02.897Z,100.00
2022-08-05T05:45:29.445Z,100.00
2022-08-05T05:48:06.852Z,100.00
2022-08-05T05:50:41.149Z,100.00
2022-08-05T05:53:20.783Z,100.00
2022-08-05T05:55:52.263Z,100.00
2022-08-05T05:58:31.639Z,100.00
2022-08-05T06:01:13.093Z,100.00
2022-08-05T06:04:00.700Z,97.31
2022-08-05T06:06:30.747Z,92.41
2022-08-05T06:08:59.590Z,87.53
2022-08-05T06:11:26.171Z,80.26
2022-08-05T06:13:55.547Z,78.35
2022-08-05T06:16:28.840Z,74.19
2022-08-05T06:19:00.292Z,71.44
2022-08-05T06:21:36.088Z,68.79
2022-08-05T06:24:04.323Z,67.41
2022-08-05T06:26:31.859Z,65.41
2022-08-05T06:29:03.531Z,62.42
2022-08-05T06:31:47.003Z,58.24
2022-08-05T06:34:13.688Z,54.38
2022-08-05T06:36:57.004Z,50.15
2022-08-05T06:39:27.330Z,47.31
2022-08-05T06:41:59.274Z,45.64
2022-08-05T06:44:26.078Z,45.17
2022-08-05T06:46:52.698Z,44.95
2022-08-05T06:49:21.378Z,45.95
2022-08-05T06:52:07.510Z,47.66
2022-08-05T06:54:53.906Z,50.26
2022-08-05T06:58:03.132Z,52.53
2022-08-05T07:00:09.638Z,56.38
2022-08-05T07:02:46.170Z,61.00
2022-08-05T07:05:15.314Z,65.76
2022-08-05T07:07:48.818Z,72.27
2022-08-05T07:10:16.422Z,77.29
2022-08-05T07:13:01.590Z,83.30
2022-08-05T07:16:01.990Z,86.73
2022-08-05T07:18:31.901Z,89.88
2022-08-05T07:20:58.628Z,93.87
2022-08-05T07:23:31.364Z,94.46
2022-08-05T07:25:57.793Z,97.80
2022-08-05T07:28:25.212Z,100.00
2022-08-05T07:30:53.994Z,100.00
2022-08-05T07:33:36.918Z,100.00
2022-08-05T07:36:20.747Z,100.00
2022-08-05T07:38:48.934Z,96.40
2022-08-05T07:42:13.148Z,98.74
2022-08-05T07:44:05.754Z,98.86
2022-08-05T07:46:41.110Z,100.00
2022-08-05T07:49:14.801Z,100.00
2022-08-05T07:51:54.017Z,100.00
2022-08-05T07:54:31.430Z,100.00
2022-08-05T07:57:16.854Z,100.00
2022-08-05T07:59:50.276Z,100.00
2022-08-05T08:02:17.820Z,100.00
2022-08-05T08:04:48.562Z,100.00
2022-08-05T08:07:15.492Z,100.00
2022-08-05T08:09:42.631Z,100.00
2022-08-05T08:12:30.622Z,100.00
2022-08-05T08:14:55.674Z,95.69
2022-08-05T08:17:23.432Z,95.04
2022-08-05T08:20:21.751Z,98.06
2022-08-05T08:22:36.530Z,100.00
2022-08-05T08:25:04.028Z,100.00
2022-08-05T08:27:47.441Z,91.62
2022-08-05T08:30:19.002Z,83.75
2022-08-05T08:32:48.022Z,79.72
2022-08-05T08:35:17.659Z,76.74
2022-08-05T08:37:45.704Z,75.81
2022-08-05T08:40:20.012Z,72.46
2022-08-05T08:42:52.542Z,70.01
2022-08-05T08:45:26.535Z,66.85
2022-08-05T08:48:12.845Z,63.27
2022-08-05T08:51:03.902Z,59.83
2022-08-05T08:53:28.883Z,55.74
2022-08-05T08:56:03.406Z,52.69
2022-08-05T08:58:43.192Z,49.89
2022-08-05T09:01:16.252Z,47.48
2022-08-05T09:03:55.158Z,43.38
2022-08-05T09:06:28.097Z,41.06
2022-08-05T09:08:57.199Z,38.13
2022-08-05T09:11:51.345Z,35.00
2022-08-05T09:14:56.508Z,31.73
2022-08-05T09:16:58.861Z,24.50
2022-08-05T09:19:27.925Z,19.33
2022-08-05T09:22:23.144Z,17.06
2022-08-05T09:24:59.986Z,15.30
2022-08-05T09:28:04.191Z,14.99
2022-08-05T09:30:23.236Z,15.49
2022-08-05T09:32:50.275Z,16.06
2022-08-05T09:35:20.168Z,15.70
2022-08-05T09:38:17.324Z,17.17
2022-08-05T09:40:44.592Z,16.60
2022-08-05T09:43:49.365Z,15.45
2022-08-05T09:46:29.971Z,15.66
2022-08-05T09:49:08.199Z,14.90
2022-08-05T09:51:43.900Z,14.26
2022-08-05T09:54:15.441Z,12.92
2022-08-05T09:56:51.750Z,12.13
2022-08-05T09:59:19.021Z,11.16
2022-08-05T10:01:47.363Z,10.13
2022-08-05T10:04:16.061Z,9.17
2022-08-05T10:06:58.999Z,8.32
2022-08-05T10:09:27.956Z,8.26
2022-08-05T10:11:56.222Z,7.15
2022-08-05T10:14:30.323Z,5.37
2022-08-05T10:17:14.134Z,4.78
2022-08-05T10:20:03.884Z,2.97
2022-08-05T10:22:37.977Z,0.29
2022-08-05T10:25:09.554Z,0.00
2022-08-05T10:28:13.774Z,0.00
2022-08-05T10:31:19.837Z,0.00
2022-08-05T10:33:14.858Z,0.00
2022-08-05T10:35:44.366Z,0.00
2022-08-05T10:38:11.754Z,0.00
2022-08-05T10:40:57.887Z,0.00
2022-08-05T10:43:53.987Z,0.00
2022-08-05T10:46:23.852Z,0.00
2022-08-05T10:48:58.005Z,0.00
2022-08-05T10:51:29.185Z,0.00
2022-08-05T10:54:00.885Z,0.00
2022-08-05T10:56:43.796Z,0.00
2022-08-05T11:00:02.219Z,0.00
2022-08-05T11:02:14.649Z,0.00
2022-08-05T11:04:57.646Z,0.00
2022-08-05T11:07:32.862Z,0.00
2022-08-05T11:10:21.635Z,0.00
2022-08-05T11:12:50.335Z,0.00
2022-08-05T11:15:59.054Z,0.00
2022-08-05T11:18:34.131Z,0.00
2022-08-05T11:21:02.879Z,0.00
2022-08-05T11:24:03.129Z,0.00
2022-08-05T11:26:32.619Z,0.00
2022-08-05T11:29:11.646Z,0.00
2022-08-05T11:31:56.271Z,0.00
2022-08-05T11:34:52.095Z,0.00
2022-08-05T11:38:28.065Z,0.00
2022-08-05T11:41:14.152Z,0.00
2022-08-05T11:44:08.339Z,0.00
2022-08-05T11:47:09.911Z,0.00
2022-08-05T11:49:38.662Z,0.00
2022-08-05T11:52:11.601Z,0.00
2022-08-05T11:54:40.596Z,0.00
2022-08-05T11:57:24.859Z,0.00
2022-08-05T11:59:54.901Z,0.00
2022-08-05T12:02:30.181Z,0.00
2022-08-05T12:04:59.590Z,0.00
2022-08-05T12:08:10.228Z,0.00
2022-08-05T12:10:12.994Z,0.00
2022-08-05T12:12:39.709Z,0.00
2022-08-05T12:15:38.407Z,0.00
2022-08-05T12:18:10.842Z,0.00
2022-08-05T12:20:38.832Z,0.00
2022-08-05T12:23:09.767Z,0.00
2022-08-05T12:25:53.486Z,0.00
2022-08-05T12:28:32.954Z,0.04
2022-08-05T12:31:02.302Z,1.77
2022-08-05T12:33:36.430Z,5.04
2022-08-05T12:36:03.902Z,4.76
2022-08-05T12:38:35.811Z,3.83
2022-08-05T12:41:03.213Z,2.37
2022-08-05T12:43:32.229Z,8.07
2022-08-05T12:45:58.920Z,5.52
2022-08-05T12:48:27.164Z,6.61
2022-08-05T12:52:10.740Z,5.67
2022-08-05T12:54:03.982Z,3.53
2022-08-05T12:56:35.411Z,1.74
2022-08-05T12:59:23.841Z,0.13
2022-08-05T13:02:07.656Z,0.68
2022-08-05T13:04:52.295Z,0.00
2022-08-05T13:07:56.183Z,0.00
2022-08-05T13:10:13.819Z,0.00
2022-08-05T13:12:57.248Z,0.00
2022-08-05T13:15:36.045Z,0.00
2022-08-05T13:18:18.770Z,0.00
2022-08-05T13:20:46.472Z,0.00
2022-08-05T13:23:12.935Z,0.00
2022-08-05T13:25:52.366Z,0.00
2022-08-05T13:28:25.573Z,0.00
2022-08-05T13:30:53.279Z,0.00
2022-08-05T13:34:22.397Z,0.00
2022-08-05T13:36:09.124Z,0.00
2022-08-05T13:38:42.179Z,0.00
2022-08-05T13:41:10.731Z,0.00
2022-08-05T13:43:44.650Z,0.00
2022-08-05T13:46:30.646Z,0.00
2022-08-05T13:49:04.870Z,0.00
2022-08-05T13:51:40.913Z,0.00
2022-08-05T13:54:12.684Z,0.00
2022-08-05T13:56:45.524Z,0.00
2022-08-05T13:59:20.506Z,0.00
2022-08-05T14:01:56.729Z,0.00
2022-08-05T14:04:54.163Z,0.00
2022-08-05T14:07:57.010Z,0.00
2022-08-05T14:10:18.920Z,0.00
2022-08-05T14:12:54.614Z,0.00
2022-08-05T14:16:07.072Z,0.00
2022-08-05T14:18:17.508Z,11.47
2022-08-05T14:20:47.457Z,12.45
2022-08-05T14:23:15.352Z,17.73
2022-08-05T14:25:53.956Z,18.03
2022-08-05T14:28:27.033Z,23.92
2022-08-05T14:30:54.717Z,28.76
2022-08-05T14:33:22.980Z,24.30
2022-08-05T14:35:52.060Z,22.86
2022-08-05T14:38:27.788Z,32.44
2022-08-05T14:40:59.432Z,33.61
2022-08-05T14:44:01.615Z,33.83
2022-08-05T14:46:12.344Z,35.75
2022-08-05T14:48:38.808Z,44.57
2022-08-05T14:51:05.363Z,46.66
2022-08-05T14:53:34.946Z,43.96
2022-08-05T14:56:11.245Z,41.74
2022-08-05T14:58:38.470Z,44.37
2022-08-05T15:01:24.169Z,38.49
2022-08-05T15:04:11.521Z,41.29
2022-08-05T15:06:38.767Z,37.61
2022-08-05T15:09:07.032Z,35.91
2022-08-05T15:11:51.292Z,36.57
2022-08-05T15:14:34.703Z,36.76
2022-08-05T15:17:10.032Z,31.87
2022-08-05T15:19:55.135Z,32.96
2022-08-05T15:22:22.030Z,35.29
2022-08-05T15:24:54.116Z,31.36
2022-08-05T15:27:20.561Z,35.81
2022-08-05T15:29:47.052Z,31.76
2022-08-05T15:32:21.599Z,40.67
2022-08-05T15:34:54.022Z,47.47
2022-08-05T15:38:31.840Z,47.76
2022-08-05T15:41:01.992Z,51.92
2022-08-05T15:43:01.345Z,56.95
2022-08-05T15:45:42.887Z,56.20
2022-08-05T15:48:14.274Z,52.38
2022-08-05T15:50:43.846Z,48.48
2022-08-05T15:53:12.979Z,47.10
2022-08-05T15:56:03.043Z,51.30
2022-08-05T15:58:28.450Z,54.15
2022-08-05T16:01:04.274Z,50.62
2022-08-05T16:03:42.199Z,60.97
2022-08-05T16:06:09.198Z,90.65
2022-08-05T16:08:38.050Z,100.00
2022-08-05T16:11:04.522Z,100.00
2022-08-05T16:13:34.291Z,100.00
2022-08-05T16:16:01.797Z,100.00
2022-08-05T16:18:29.950Z,100.00
2022-08-05T16:20:56.438Z,100.00
2022-08-05T16:23:22.948Z,100.00
2022-08-05T16:25:49.834Z,97.55
2022-08-05T16:28:22.313Z,91.89
2022-08-05T16:30:52.054Z,96.27
2022-08-05T16:33:19.343Z,100.00
2022-08-05T16:35:49.942Z,100.00
2022-08-05T16:38:28.149Z,100.00
2022-08-05T16:41:00.319Z,100.00
2022-08-05T16:43:28.994Z,100.00
2022-08-05T16:46:03.933Z,97.48
2022-08-05T16:48:35.677Z,94.20
2022-08-05T16:51:02.336Z,82.33
2022-08-05T16:54:04.927Z,87.20
2022-08-05T16:56:21.817Z,85.68
2022-08-05T16:58:49.856Z,88.08
2022-08-05T17:01:16.429Z,89.61
2022-08-05T17:03:45.428Z,100.00
2022-08-05T17:06:11.914Z,100.00
2022-08-05T17:08:52.461Z,100.00
2022-08-05T17:11:20.167Z,100.00
2022-08-05T17:13:50.048Z,100.00
2022-08-05T17:16:32.672Z,100.00
2022-08-05T17:18:59.833Z,100.00
2022-08-05T17:21:26.282Z,100.00
2022-08-05T17:24:19.324Z,100.00
2022-08-05T17:26:53.236Z,100.00
2022-08-05T17:29:22.455Z,100.00
2022-08-05T17:31:58.362Z,100.00
2022-08-05T17:34:30.262Z,100.00
2022-08-05T17:36:58.945Z,100.00
2022-08-05T17:39:34.098Z,100.00
2022-08-05T17:42:20.427Z,100.00
2022-08-05T17:44:51.043Z,100.00
2022-08-05T17:47:22.231Z,100.00
2022-08-05T17:50:03.826Z,100.00
2022-08-05T17:52:33.979Z,100.00
2022-08-05T17:55:00.869Z,100.00
2022-08-05T17:57:29.510Z,100.00
2022-08-05T18:00:05.516Z,100.00
2022-08-05T18:02:35.765Z,100.00
2022-08-05T18:05:05.951Z,100.00
2022-08-05T18:07:42.043Z,100.00
2022-08-05T18:10:11.002Z,100.00
2022-08-05T18:12:37.932Z,99.64
2022-08-05T18:15:05.150Z,98.95
2022-08-05T18:17:59.599Z,91.19
2022-08-05T18:20:19.376Z,86.19
2022-08-05T18:22:57.397Z,80.79
2022-08-05T18:25:25.147Z,81.74
2022-08-05T18:27:59.035Z,83.23
2022-08-05T18:30:29.191Z,81.12
2022-08-05T18:33:00.825Z,79.61
2022-08-05T18:36:01.293Z,82.84
2022-08-05T18:38:19.470Z,80.39
2022-08-05T18:41:56.358Z,83.31
2022-08-05T18:43:42.976Z,84.49
2022-08-05T18:46:15.022Z,83.99
2022-08-05T18:48:42.161Z,79.21
2022-08-05T18:52:03.354Z,77.23
2022-08-05T18:54:14.312Z,78.35
2022-08-05T18:56:40.768Z,78.01
2022-08-05T18:59:43.090Z,80.54
2022-08-05T19:01:58.194Z,70.19
2022-08-05T19:04:25.591Z,69.83
2022-08-05T19:06:53.525Z,82.05
2022-08-05T19:09:20.586Z,100.00
2022-08-05T19:11:59.810Z,100.00
2022-08-05T19:14:52.176Z,100.00
2022-08-05T19:17:14.370Z,100.00
2022-08-05T19:19:44.084Z,100.00
2022-08-05T19:22:17.082Z,100.00
2022-08-05T19:24:55.849Z,100.00
2022-08-05T19:27:22.844Z,100.00
2022-08-05T19:29:49.962Z,100.00
2022-08-05T19:32:16.450Z,100.00
2022-08-05T19:34:55.194Z,100.00
2022-08-05T19:37:29.962Z,100.00
2022-08-05T19:40:10.582Z,100.00
2022-08-05T19:42:38.827Z,100.00
2022-08-05T19:45:07.213Z,100.00
2022-08-05T19:47:37.223Z,100.00
2022-08-05T19:50:04.372Z,100.00
2022-08-05T19:52:32.701Z,100.00
2022-08-05T19:56:11.305Z,100.00
2022-08-05T19:58:06.886Z,100.00
2022-08-05T20:00:34.875Z,100.00
2022-08-05T20:03:01.482Z,100.00
2022-08-05T20:05:42.913Z,100.00
2022-08-05T20:08:09.897Z,100.00
2022-08-05T20:10:36.784Z,100.00
2022-08-05T20:13:03.377Z,100.00
2022-08-05T20:15:51.887Z,100.00
2022-08-05T20:18:33.567Z,100.00
2022-08-05T20:21:04.428Z,100.00
2022-08-05T20:23:40.238Z,100.00
2022-08-05T20:26:19.726Z,100.00
2022-08-05T20:28:48.692Z,100.00
2022-08-05T20:31:16.500Z,100.00
2022-08-05T20:33:44.074Z,100.00
2022-08-05T20:36:11.339Z,100.00
2022-08-05T20:38:38.152Z,100.00
2022-08-05T20:41:24.084Z,100.00
2022-08-05T20:43:58.648Z,100.00
2022-08-05T20:46:29.325Z,100.00
2022-08-05T20:48:55.844Z,100.00
2022-08-05T20:51:22.295Z,100.00
2022-08-05T20:53:55.092Z,100.00
2022-08-05T20:56:28.911Z,100.00
2022-08-05T20:58:56.695Z,100.00
2022-08-05T21:01:38.577Z,100.00
2022-08-05T21:04:07.226Z,100.00
2022-08-05T21:06:37.107Z,100.00
2022-08-05T21:09:05.649Z,100.00
2022-08-05T21:12:07.064Z,100.00
2022-08-05T21:14:20.045Z,100.00
2022-08-05T21:16:46.488Z,100.00
2022-08-05T21:19:13.244Z,100.00
2022-08-05T21:21:44.545Z,100.00
2022-08-05T21:24:19.502Z,100.00
2022-08-05T21:26:58.446Z,100.00
2022-08-05T21:29:26.430Z,100.00
2022-08-05T21:31:58.342Z,100.00
2022-08-05T21:34:24.904Z,100.00
2022-08-05T21:36:51.401Z,100.00
2022-08-05T21:39:27.015Z,100.00
2022-08-05T21:42:01.878Z,100.00
2022-08-05T21:44:29.814Z,100.00
2022-08-05T21:46:57.992Z,100.00
2022-08-05T21:49:48.085Z,100.00
2022-08-05T21:52:16.327Z,100.00
2022-08-05T21:54:51.283Z,100.00
2022-08-05T21:57:31.414Z,100.00
2022-08-05T22:00:07.201Z,100.00
2022-08-05T22:02:38.167Z,100.00
2022-08-05T22:05:05.078Z,100.00
2022-08-05T22:07:40.042Z,100.00
2022-08-05T22:10:27.151Z,100.00
2022-08-05T22:12:57.530Z,100.00
2022-08-05T22:16:00.750Z,100.00
2022-08-05T22:18:12.423Z,100.00
2022-08-05T22:20:41.164Z,100.00
2022-08-05T22:24:00.838Z,100.00
2022-08-05T22:26:31.322Z,100.00
2022-08-05T22:28:58.102Z,100.00
2022-08-05T22:31:24.952Z,100.00
2022-08-05T22:34:01.193Z,100.00
2022-08-05T22:36:29.073Z,100.00
2022-08-05T22:38:55.733Z,100.00
2022-08-05T22:42:04.398Z,100.00
2022-08-05T22:44:09.261Z,100.00
2022-08-05T22:46:39.516Z,100.00
2022-08-05T22:49:23.382Z,100.00
2022-08-05T22:52:06.445Z,100.00
2022-08-05T22:54:35.557Z,100.00
2022-08-05T22:57:03.393Z,100.00
2022-08-05T22:59:45.247Z,100.00
2022-08-05T23:02:16.746Z,100.00
2022-08-05T23:04:43.675Z,100.00
2022-08-05T23:07:18.284Z,100.00
2022-08-05T23:09:57.166Z,100.00
2022-08-05T23:12:29.013Z,100.00
2022-08-05T23:14:59.609Z,100.00
2022-08-05T23:17:34.851Z,100.00
2022-08-05T23:20:16.522Z,100.00
2022-08-05T23:22:47.583Z,100.00
2022-08-05T23:25:50.080Z,100.00
2022-08-05T23:28:01.770Z,100.00
2022-08-05T23:30:29.225Z,100.00
2022-08-05T23:32:57.902Z,100.00
2022-08-05T23:35:25.443Z,94.19
2022-08-05T23:37:55.172Z,89.44
2022-08-05T23:40:27.111Z,82.75
2022-08-05T23:42:53.947Z,86.16
2022-08-05T23:45:20.527Z,83.00
2022-08-05T23:47:50.369Z,82.53
2022-08-05T23:50:20.483Z,78.71
2022-08-05T23:52:49.557Z,74.24
2022-08-05T23:55:17.029Z,73.77
2022-08-05T23:57:43.895Z,75.55
